sensor_id;sensor_type;location;lat;lon;timestamp;P1;durP1;ratioP1;P2;durP2;ratioP2
20056;SDS011;10189;49.546;7.906;2023-06-26T00:01:50;8.68;;;7.88;;
20056;SDS011;10189;49.546;7.906;2023-06-26T00:04:16;9.13;;;8.23;;
20056;SDS011;10189;49.546;7.906;2023-06-26T00:06:42;8.90;;;8.00;;
20056;SDS011;10189;49.546;7.906;2023-06-26T00:09:08;9.40;;;8.43;;
20056;SDS011;10189;49.546;7.906;2023-06-26T00:11:34;8.70;;;7.88;;
20056;SDS011;10189;49.546;7.906;2023-06-26T00:14:00;9.35;;;8.38;;
20056;SDS011;10189;49.546;7.906;2023-06-26T00:16:26;9.77;;;8.77;;
20056;SDS011;10189;49.546;7.906;2023-06-26T00:18:53;9.20;;;8.25;;
20056;SDS011;10189;49.546;7.906;2023-06-26T00:21:19;9.32;;;8.43;;
20056;SDS011;10189;49.546;7.906;2023-06-26T00:23:45;9.13;;;8.23;;
20056;SDS011;10189;49.546;7.906;2023-06-26T00:26:11;8.95;;;8.05;;
20056;SDS011;10189;49.546;7.906;2023-06-26T00:28:37;9.25;;;8.07;;
20056;SDS011;10189;49.546;7.906;2023-06-26T00:31:03;10.38;;;8.15;;
20056;SDS011;10189;49.546;7.906;2023-06-26T00:33:29;9.55;;;8.45;;
20056;SDS011;10189;49.546;7.906;2023-06-26T00:35:56;9.52;;;8.38;;
20056;SDS011;10189;49.546;7.906;2023-06-26T00:38:22;8.55;;;7.75;;
20056;SDS011;10189;49.546;7.906;2023-06-26T00:40:48;9.10;;;8.18;;
20056;SDS011;10189;49.546;7.906;2023-06-26T00:43:14;8.45;;;7.53;;
20056;SDS011;10189;49.546;7.906;2023-06-26T00:45:40;10.00;;;8.52;;
20056;SDS011;10189;49.546;7.906;2023-06-26T00:48:06;9.35;;;8.20;;
20056;SDS011;10189;49.546;7.906;2023-06-26T00:50:32;8.88;;;8.00;;
20056;SDS011;10189;49.546;7.906;2023-06-26T00:52:58;8.80;;;7.90;;
20056;SDS011;10189;49.546;7.906;2023-06-26T00:55:26;8.73;;;7.82;;
20056;SDS011;10189;49.546;7.906;2023-06-26T00:57:53;9.20;;;8.30;;
20056;SDS011;10189;49.546;7.906;2023-06-26T01:00:20;9.60;;;8.07;;
20056;SDS011;10189;49.546;7.906;2023-06-26T01:02:46;9.77;;;8.60;;
20056;SDS011;10189;49.546;7.906;2023-06-26T01:05:13;9.57;;;8.55;;
20056;SDS011;10189;49.546;7.906;2023-06-26T01:07:48;10.60;;;8.65;;
20056;SDS011;10189;49.546;7.906;2023-06-26T01:10:16;9.95;;;8.15;;
20056;SDS011;10189;49.546;7.906;2023-06-26T01:12:43;11.40;;;8.43;;
20056;SDS011;10189;49.546;7.906;2023-06-26T01:15:10;10.77;;;8.80;;
20056;SDS011;10189;49.546;7.906;2023-06-26T01:17:37;10.05;;;8.50;;
20056;SDS011;10189;49.546;7.906;2023-06-26T01:20:05;10.05;;;9.00;;
20056;SDS011;10189;49.546;7.906;2023-06-26T01:25:47;9.88;;;8.73;;
20056;SDS011;10189;49.546;7.906;2023-06-26T01:28:26;9.93;;;8.82;;
20056;SDS011;10189;49.546;7.906;2023-06-26T01:30:55;9.27;;;8.27;;
20056;SDS011;10189;49.546;7.906;2023-06-26T01:33:23;11.20;;;8.50;;
20056;SDS011;10189;49.546;7.906;2023-06-26T01:35:50;10.82;;;9.30;;
20056;SDS011;10189;49.546;7.906;2023-06-26T01:38:17;9.70;;;8.70;;
20056;SDS011;10189;49.546;7.906;2023-06-26T01:40:46;9.75;;;8.73;;
20056;SDS011;10189;49.546;7.906;2023-06-26T01:43:18;11.20;;;8.77;;
20056;SDS011;10189;49.546;7.906;2023-06-26T01:46:24;10.20;;;9.15;;
20056;SDS011;10189;49.546;7.906;2023-06-26T01:49:06;10.45;;;9.35;;
20056;SDS011;10189;49.546;7.906;2023-06-26T01:55:46;10.95;;;9.35;;
20056;SDS011;10189;49.546;7.906;2023-06-26T01:58:17;9.93;;;8.93;;
20056;SDS011;10189;49.546;7.906;2023-06-26T02:00:49;10.10;;;9.10;;
20056;SDS011;10189;49.546;7.906;2023-06-26T02:03:15;10.13;;;9.10;;
20056;SDS011;10189;49.546;7.906;2023-06-26T02:05:41;10.70;;;9.60;;
20056;SDS011;10189;49.546;7.906;2023-06-26T02:08:08;10.13;;;8.65;;
20056;SDS011;10189;49.546;7.906;2023-06-26T02:10:34;10.48;;;8.88;;
20056;SDS011;10189;49.546;7.906;2023-06-26T02:13:00;10.45;;;9.35;;
20056;SDS011;10189;49.546;7.906;2023-06-26T02:15:26;10.63;;;9.63;;
20056;SDS011;10189;49.546;7.906;2023-06-26T02:17:52;10.98;;;9.77;;
20056;SDS011;10189;49.546;7.906;2023-06-26T02:20:19;10.57;;;9.48;;
20056;SDS011;10189;49.546;7.906;2023-06-26T02:22:45;10.25;;;9.25;;
20056;SDS011;10189;49.546;7.906;2023-06-26T02:25:10;10.30;;;9.30;;
20056;SDS011;10189;49.546;7.906;2023-06-26T02:27:37;10.30;;;9.20;;
20056;SDS011;10189;49.546;7.906;2023-06-26T02:30:04;9.88;;;8.93;;
20056;SDS011;10189;49.546;7.906;2023-06-26T02:32:30;9.80;;;8.80;;
20056;SDS011;10189;49.546;7.906;2023-06-26T02:34:56;10.45;;;9.02;;
20056;SDS011;10189;49.546;7.906;2023-06-26T02:37:22;10.18;;;9.00;;
20056;SDS011;10189;49.546;7.906;2023-06-26T02:39:48;9.63;;;8.63;;
20056;SDS011;10189;49.546;7.906;2023-06-26T02:42:14;11.43;;;10.23;;
20056;SDS011;10189;49.546;7.906;2023-06-26T02:44:40;11.98;;;10.23;;
20056;SDS011;10189;49.546;7.906;2023-06-26T02:47:06;10.48;;;9.40;;
20056;SDS011;10189;49.546;7.906;2023-06-26T02:49:34;10.32;;;9.23;;
20056;SDS011;10189;49.546;7.906;2023-06-26T02:52:00;10.35;;;9.15;;
20056;SDS011;10189;49.546;7.906;2023-06-26T02:54:28;10.10;;;9.10;;
20056;SDS011;10189;49.546;7.906;2023-06-26T02:57:00;10.55;;;9.35;;
20056;SDS011;10189;49.546;7.906;2023-06-26T02:59:28;11.32;;;9.63;;
20056;SDS011;10189;49.546;7.906;2023-06-26T03:01:55;11.38;;;10.18;;
20056;SDS011;10189;49.546;7.906;2023-06-26T03:04:27;11.38;;;10.10;;
20056;SDS011;10189;49.546;7.906;2023-06-26T03:06:53;10.30;;;9.30;;
20056;SDS011;10189;49.546;7.906;2023-06-26T03:09:19;11.05;;;9.40;;
20056;SDS011;10189;49.546;7.906;2023-06-26T03:11:45;10.52;;;9.43;;
20056;SDS011;10189;49.546;7.906;2023-06-26T03:14:11;10.52;;;9.43;;
20056;SDS011;10189;49.546;7.906;2023-06-26T03:16:37;10.93;;;9.75;;
20056;SDS011;10189;49.546;7.906;2023-06-26T03:19:03;10.55;;;9.50;;
20056;SDS011;10189;49.546;7.906;2023-06-26T03:21:33;11.23;;;9.43;;
20056;SDS011;10189;49.546;7.906;2023-06-26T03:23:59;10.93;;;9.43;;
20056;SDS011;10189;49.546;7.906;2023-06-26T03:26:26;10.90;;;9.77;;
20056;SDS011;10189;49.546;7.906;2023-06-26T03:28:54;10.60;;;9.07;;
20056;SDS011;10189;49.546;7.906;2023-06-26T03:31:20;10.30;;;9.30;;
20056;SDS011;10189;49.546;7.906;2023-06-26T03:33:46;11.23;;;10.13;;
20056;SDS011;10189;49.546;7.906;2023-06-26T03:36:12;11.45;;;10.25;;
20056;SDS011;10189;49.546;7.906;2023-06-26T03:38:40;10.73;;;9.63;;
20056;SDS011;10189;49.546;7.906;2023-06-26T03:41:06;11.02;;;9.82;;
20056;SDS011;10189;49.546;7.906;2023-06-26T03:43:32;9.88;;;8.88;;
20056;SDS011;10189;49.546;7.906;2023-06-26T03:46:19;11.60;;;9.40;;
20056;SDS011;10189;49.546;7.906;2023-06-26T03:48:46;10.57;;;9.20;;
20056;SDS011;10189;49.546;7.906;2023-06-26T03:51:12;11.70;;;10.00;;
20056;SDS011;10189;49.546;7.906;2023-06-26T03:53:39;10.82;;;9.52;;
20056;SDS011;10189;49.546;7.906;2023-06-26T03:56:05;10.45;;;9.32;;
20056;SDS011;10189;49.546;7.906;2023-06-26T03:58:31;10.35;;;9.25;;
20056;SDS011;10189;49.546;7.906;2023-06-26T04:00:57;11.45;;;10.15;;
20056;SDS011;10189;49.546;7.906;2023-06-26T04:03:24;12.43;;;9.75;;
20056;SDS011;10189;49.546;7.906;2023-06-26T04:05:50;10.23;;;9.18;;
20056;SDS011;10189;49.546;7.906;2023-06-26T04:08:16;11.35;;;9.18;;
20056;SDS011;10189;49.546;7.906;2023-06-26T04:10:42;11.35;;;9.13;;
20056;SDS011;10189;49.546;7.906;2023-06-26T04:13:10;11.02;;;9.88;;
20056;SDS011;10189;49.546;7.906;2023-06-26T04:15:37;11.85;;;10.20;;
20056;SDS011;10189;49.546;7.906;2023-06-26T04:18:02;11.25;;;9.30;;
20056;SDS011;10189;49.546;7.906;2023-06-26T04:20:28;10.48;;;9.38;;
20056;SDS011;10189;49.546;7.906;2023-06-26T04:22:54;9.85;;;8.85;;
20056;SDS011;10189;49.546;7.906;2023-06-26T04:25:20;9.50;;;8.60;;
20056;SDS011;10189;49.546;7.906;2023-06-26T04:27:46;10.45;;;8.50;;
20056;SDS011;10189;49.546;7.906;2023-06-26T04:30:12;9.65;;;8.65;;
20056;SDS011;10189;49.546;7.906;2023-06-26T04:32:38;10.98;;;9.88;;
20056;SDS011;10189;49.546;7.906;2023-06-26T04:35:04;10.13;;;9.05;;
20056;SDS011;10189;49.546;7.906;2023-06-26T04:37:30;9.75;;;8.77;;
20056;SDS011;10189;49.546;7.906;2023-06-26T04:39:56;9.15;;;8.25;;
20056;SDS011;10189;49.546;7.906;2023-06-26T04:42:22;9.32;;;8.43;;
20056;SDS011;10189;49.546;7.906;2023-06-26T04:44:48;8.77;;;7.88;;
20056;SDS011;10189;49.546;7.906;2023-06-26T04:47:14;9.23;;;8.32;;
20056;SDS011;10189;49.546;7.906;2023-06-26T04:49:40;9.80;;;8.90;;
20056;SDS011;10189;49.546;7.906;2023-06-26T04:52:11;10.10;;;9.10;;
20056;SDS011;10189;49.546;7.906;2023-06-26T04:54:40;9.55;;;8.60;;
20056;SDS011;10189;49.546;7.906;2023-06-26T04:57:06;10.00;;;8.73;;
20056;SDS011;10189;49.546;7.906;2023-06-26T04:59:33;10.07;;;8.77;;
20056;SDS011;10189;49.546;7.906;2023-06-26T05:01:59;10.75;;;9.27;;
20056;SDS011;10189;49.546;7.906;2023-06-26T05:04:25;10.45;;;9.35;;
20056;SDS011;10189;49.546;7.906;2023-06-26T05:06:51;10.40;;;9.23;;
20056;SDS011;10189;49.546;7.906;2023-06-26T05:09:17;11.10;;;9.52;;
20056;SDS011;10189;49.546;7.906;2023-06-26T05:11:42;11.80;;;9.32;;
20056;SDS011;10189;49.546;7.906;2023-06-26T05:14:08;17.92;;;9.02;;
20056;SDS011;10189;49.546;7.906;2023-06-26T05:16:34;10.82;;;8.93;;
20056;SDS011;10189;49.546;7.906;2023-06-26T05:19:00;9.95;;;9.05;;
20056;SDS011;10189;49.546;7.906;2023-06-26T05:21:27;11.02;;;9.93;;
20056;SDS011;10189;49.546;7.906;2023-06-26T05:23:54;10.75;;;9.13;;
20056;SDS011;10189;49.546;7.906;2023-06-26T05:26:22;9.93;;;8.85;;
20056;SDS011;10189;49.546;7.906;2023-06-26T05:28:50;9.98;;;8.45;;
20056;SDS011;10189;49.546;7.906;2023-06-26T05:31:16;10.07;;;9.07;;
20056;SDS011;10189;49.546;7.906;2023-06-26T05:33:43;9.57;;;8.68;;
20056;SDS011;10189;49.546;7.906;2023-06-26T05:36:11;10.82;;;9.02;;
20056;SDS011;10189;49.546;7.906;2023-06-26T05:38:39;12.77;;;9.40;;
20056;SDS011;10189;49.546;7.906;2023-06-26T05:41:05;9.55;;;8.63;;
20056;SDS011;10189;49.546;7.906;2023-06-26T05:43:31;10.32;;;9.02;;
20056;SDS011;10189;49.546;7.906;2023-06-26T05:45:57;10.20;;;8.90;;
20056;SDS011;10189;49.546;7.906;2023-06-26T05:48:23;11.40;;;8.98;;
20056;SDS011;10189;49.546;7.906;2023-06-26T05:50:49;9.85;;;8.88;;
20056;SDS011;10189;49.546;7.906;2023-06-26T05:53:15;9.00;;;8.20;;
20056;SDS011;10189;49.546;7.906;2023-06-26T05:55:41;9.40;;;8.45;;
20056;SDS011;10189;49.546;7.906;2023-06-26T05:58:07;8.85;;;7.95;;
20056;SDS011;10189;49.546;7.906;2023-06-26T06:00:36;9.80;;;8.30;;
20056;SDS011;10189;49.546;7.906;2023-06-26T06:03:05;9.48;;;8.50;;
20056;SDS011;10189;49.546;7.906;2023-06-26T06:05:31;9.20;;;8.30;;
20056;SDS011;10189;49.546;7.906;2023-06-26T06:07:57;9.23;;;8.20;;
20056;SDS011;10189;49.546;7.906;2023-06-26T06:10:22;8.63;;;7.82;;
20056;SDS011;10189;49.546;7.906;2023-06-26T06:12:48;9.18;;;8.30;;
20056;SDS011;10189;49.546;7.906;2023-06-26T06:15:14;9.60;;;8.10;;
20056;SDS011;10189;49.546;7.906;2023-06-26T06:17:40;8.93;;;8.02;;
20056;SDS011;10189;49.546;7.906;2023-06-26T06:20:06;9.43;;;8.02;;
20056;SDS011;10189;49.546;7.906;2023-06-26T06:22:32;8.70;;;7.90;;
20056;SDS011;10189;49.546;7.906;2023-06-26T06:24:58;8.88;;;8.07;;
20056;SDS011;10189;49.546;7.906;2023-06-26T06:27:25;10.35;;;7.85;;
20056;SDS011;10189;49.546;7.906;2023-06-26T06:29:52;9.43;;;7.95;;
20056;SDS011;10189;49.546;7.906;2023-06-26T06:32:18;9.52;;;8.50;;
20056;SDS011;10189;49.546;7.906;2023-06-26T06:34:44;9.07;;;7.78;;
20056;SDS011;10189;49.546;7.906;2023-06-26T06:37:10;8.40;;;7.60;;
20056;SDS011;10189;49.546;7.906;2023-06-26T06:39:35;9.88;;;8.20;;
20056;SDS011;10189;49.546;7.906;2023-06-26T06:42:01;9.32;;;8.00;;
20056;SDS011;10189;49.546;7.906;2023-06-26T06:44:27;8.77;;;7.85;;
20056;SDS011;10189;49.546;7.906;2023-06-26T06:46:55;8.15;;;7.35;;
20056;SDS011;10189;49.546;7.906;2023-06-26T06:49:21;8.90;;;8.10;;
20056;SDS011;10189;49.546;7.906;2023-06-26T06:51:47;9.85;;;7.70;;
20056;SDS011;10189;49.546;7.906;2023-06-26T06:54:15;9.10;;;8.25;;
20056;SDS011;10189;49.546;7.906;2023-06-26T06:56:42;10.35;;;8.02;;
20056;SDS011;10189;49.546;7.906;2023-06-26T06:59:08;8.63;;;7.82;;
20056;SDS011;10189;49.546;7.906;2023-06-26T07:01:34;8.77;;;8.02;;
20056;SDS011;10189;49.546;7.906;2023-06-26T07:03:59;8.82;;;8.02;;
20056;SDS011;10189;49.546;7.906;2023-06-26T07:06:25;8.73;;;7.85;;
20056;SDS011;10189;49.546;7.906;2023-06-26T07:08:51;8.90;;;8.10;;
20056;SDS011;10189;49.546;7.906;2023-06-26T07:11:17;9.15;;;7.88;;
20056;SDS011;10189;49.546;7.906;2023-06-26T07:13:43;8.73;;;7.82;;
20056;SDS011;10189;49.546;7.906;2023-06-26T07:16:09;9.35;;;8.40;;
20056;SDS011;10189;49.546;7.906;2023-06-26T07:18:37;9.85;;;8.85;;
20056;SDS011;10189;49.546;7.906;2023-06-26T07:21:03;9.15;;;8.27;;
20056;SDS011;10189;49.546;7.906;2023-06-26T07:23:29;10.40;;;8.30;;
20056;SDS011;10189;49.546;7.906;2023-06-26T07:25:55;9.43;;;8.52;;
20056;SDS011;10189;49.546;7.906;2023-06-26T07:28:21;9.38;;;8.50;;
20056;SDS011;10189;49.546;7.906;2023-06-26T07:30:47;10.63;;;8.43;;
20056;SDS011;10189;49.546;7.906;2023-06-26T07:33:12;9.43;;;8.50;;
20056;SDS011;10189;49.546;7.906;2023-06-26T07:35:38;11.05;;;8.95;;
20056;SDS011;10189;49.546;7.906;2023-06-26T07:38:05;9.68;;;8.68;;
20056;SDS011;10189;49.546;7.906;2023-06-26T07:40:31;10.02;;;9.07;;
20056;SDS011;10189;49.546;7.906;2023-06-26T07:42:56;9.73;;;8.75;;
20056;SDS011;10189;49.546;7.906;2023-06-26T07:45:23;10.18;;;9.15;;
20056;SDS011;10189;49.546;7.906;2023-06-26T07:47:49;9.57;;;8.60;;
20056;SDS011;10189;49.546;7.906;2023-06-26T07:50:15;12.82;;;9.60;;
20056;SDS011;10189;49.546;7.906;2023-06-26T07:52:46;9.77;;;8.88;;
20056;SDS011;10189;49.546;7.906;2023-06-26T07:55:12;9.88;;;8.98;;
20056;SDS011;10189;49.546;7.906;2023-06-26T07:57:38;9.98;;;8.93;;
20056;SDS011;10189;49.546;7.906;2023-06-26T08:00:04;9.85;;;8.85;;
20056;SDS011;10189;49.546;7.906;2023-06-26T08:02:39;10.02;;;9.02;;
20056;SDS011;10189;49.546;7.906;2023-06-26T08:05:05;9.90;;;8.73;;
20056;SDS011;10189;49.546;7.906;2023-06-26T08:07:31;9.35;;;8.45;;
20056;SDS011;10189;49.546;7.906;2023-06-26T08:09:57;12.60;;;9.38;;
20056;SDS011;10189;49.546;7.906;2023-06-26T08:12:22;9.98;;;9.00;;
20056;SDS011;10189;49.546;7.906;2023-06-26T08:14:48;9.30;;;8.40;;
20056;SDS011;10189;49.546;7.906;2023-06-26T08:17:14;10.65;;;9.13;;
20056;SDS011;10189;49.546;7.906;2023-06-26T08:19:40;12.23;;;8.93;;
20056;SDS011;10189;49.546;7.906;2023-06-26T08:22:06;13.70;;;8.43;;
20056;SDS011;10189;49.546;7.906;2023-06-26T08:24:32;9.13;;;8.18;;
20056;SDS011;10189;49.546;7.906;2023-06-26T08:26:58;9.52;;;8.40;;
20056;SDS011;10189;49.546;7.906;2023-06-26T08:29:24;10.48;;;8.50;;
20056;SDS011;10189;49.546;7.906;2023-06-26T08:31:49;9.70;;;8.63;;
20056;SDS011;10189;49.546;7.906;2023-06-26T08:34:15;12.40;;;8.57;;
20056;SDS011;10189;49.546;7.906;2023-06-26T08:36:41;9.70;;;8.65;;
20056;SDS011;10189;49.546;7.906;2023-06-26T08:39:07;9.30;;;8.50;;
20056;SDS011;10189;49.546;7.906;2023-06-26T08:41:33;10.70;;;8.90;;
20056;SDS011;10189;49.546;7.906;2023-06-26T08:43:59;9.30;;;8.40;;
20056;SDS011;10189;49.546;7.906;2023-06-26T08:46:25;9.60;;;8.68;;
20056;SDS011;10189;49.546;7.906;2023-06-26T08:48:58;9.73;;;8.82;;
20056;SDS011;10189;49.546;7.906;2023-06-26T08:51:44;9.98;;;8.75;;
20056;SDS011;10189;49.546;7.906;2023-06-26T08:54:21;9.88;;;8.88;;
20056;SDS011;10189;49.546;7.906;2023-06-26T08:56:56;10.07;;;9.10;;
20056;SDS011;10189;49.546;7.906;2023-06-26T08:59:24;12.00;;;9.15;;
20056;SDS011;10189;49.546;7.906;2023-06-26T09:01:50;9.45;;;8.55;;
20056;SDS011;10189;49.546;7.906;2023-06-26T09:04:16;12.60;;;9.25;;
20056;SDS011;10189;49.546;7.906;2023-06-26T09:06:42;9.55;;;8.57;;
20056;SDS011;10189;49.546;7.906;2023-06-26T09:09:09;9.63;;;8.63;;
20056;SDS011;10189;49.546;7.906;2023-06-26T09:11:35;9.25;;;8.35;;
20056;SDS011;10189;49.546;7.906;2023-06-26T09:14:01;10.95;;;8.90;;
20056;SDS011;10189;49.546;7.906;2023-06-26T09:16:30;12.73;;;9.30;;
20056;SDS011;10189;49.546;7.906;2023-06-26T09:18:56;9.85;;;8.32;;
20056;SDS011;10189;49.546;7.906;2023-06-26T09:21:22;9.52;;;8.60;;
20056;SDS011;10189;49.546;7.906;2023-06-26T09:23:49;10.73;;;8.73;;
20056;SDS011;10189;49.546;7.906;2023-06-26T09:26:16;9.05;;;8.23;;
20056;SDS011;10189;49.546;7.906;2023-06-26T09:28:42;9.40;;;8.38;;
20056;SDS011;10189;49.546;7.906;2023-06-26T09:31:08;8.93;;;8.02;;
20056;SDS011;10189;49.546;7.906;2023-06-26T09:33:36;9.25;;;8.10;;
20056;SDS011;10189;49.546;7.906;2023-06-26T09:36:18;9.25;;;8.30;;
20056;SDS011;10189;49.546;7.906;2023-06-26T09:38:46;9.38;;;8.38;;
20056;SDS011;10189;49.546;7.906;2023-06-26T09:41:17;10.38;;;8.02;;
20056;SDS011;10189;49.546;7.906;2023-06-26T09:43:49;8.73;;;7.90;;
20056;SDS011;10189;49.546;7.906;2023-06-26T09:46:23;8.60;;;7.70;;
20056;SDS011;10189;49.546;7.906;2023-06-26T09:51:38;7.60;;;6.65;;
20056;SDS011;10189;49.546;7.906;2023-06-26T09:54:07;7.97;;;6.78;;
20056;SDS011;10189;49.546;7.906;2023-06-26T09:56:37;7.45;;;6.70;;
20056;SDS011;10189;49.546;7.906;2023-06-26T09:59:03;8.23;;;6.93;;
20056;SDS011;10189;49.546;7.906;2023-06-26T10:01:31;7.65;;;6.95;;
20056;SDS011;10189;49.546;7.906;2023-06-26T10:03:58;8.38;;;6.68;;
20056;SDS011;10189;49.546;7.906;2023-06-26T10:06:28;7.53;;;6.05;;
20056;SDS011;10189;49.546;7.906;2023-06-26T10:08:58;7.15;;;6.45;;
20056;SDS011;10189;49.546;7.906;2023-06-26T10:11:31;7.38;;;6.60;;
20056;SDS011;10189;49.546;7.906;2023-06-26T10:14:06;7.97;;;6.47;;
20056;SDS011;10189;49.546;7.906;2023-06-26T10:16:35;9.60;;;6.60;;
20056;SDS011;10189;49.546;7.906;2023-06-26T10:19:05;8.43;;;6.55;;
20056;SDS011;10189;49.546;7.906;2023-06-26T10:21:35;6.82;;;6.13;;
20056;SDS011;10189;49.546;7.906;2023-06-26T10:26:35;8.57;;;5.60;;
20056;SDS011;10189;49.546;7.906;2023-06-26T10:29:08;6.45;;;5.72;;
20056;SDS011;10189;49.546;7.906;2023-06-26T10:31:38;7.28;;;5.68;;
20056;SDS011;10189;49.546;7.906;2023-06-26T10:34:08;6.73;;;6.03;;
20056;SDS011;10189;49.546;7.906;2023-06-26T10:36:34;7.55;;;5.60;;
20056;SDS011;10189;49.546;7.906;2023-06-26T10:39:02;6.55;;;5.95;;
20056;SDS011;10189;49.546;7.906;2023-06-26T10:41:35;5.95;;;5.30;;
20056;SDS011;10189;49.546;7.906;2023-06-26T10:44:16;6.28;;;5.32;;
20056;SDS011;10189;49.546;7.906;2023-06-26T10:46:50;6.32;;;5.45;;
20056;SDS011;10189;49.546;7.906;2023-06-26T10:49:24;8.50;;;5.97;;
20056;SDS011;10189;49.546;7.906;2023-06-26T10:51:53;6.03;;;5.43;;
20056;SDS011;10189;49.546;7.906;2023-06-26T10:54:20;5.85;;;5.25;;
20056;SDS011;10189;49.546;7.906;2023-06-26T10:56:49;5.63;;;5.00;;
20056;SDS011;10189;49.546;7.906;2023-06-26T10:59:22;6.88;;;5.47;;
20056;SDS011;10189;49.546;7.906;2023-06-26T11:01:56;5.75;;;5.25;;
20056;SDS011;10189;49.546;7.906;2023-06-26T11:04:37;6.20;;;5.43;;
20056;SDS011;10189;49.546;7.906;2023-06-26T11:15:24;9.13;;;5.38;;
20056;SDS011;10189;49.546;7.906;2023-06-26T11:17:52;6.32;;;5.43;;
20056;SDS011;10189;49.546;7.906;2023-06-26T11:20:20;8.88;;;5.75;;
20056;SDS011;10189;49.546;7.906;2023-06-26T11:22:45;7.13;;;6.07;;
20056;SDS011;10189;49.546;7.906;2023-06-26T11:25:19;6.40;;;5.50;;
20056;SDS011;10189;49.546;7.906;2023-06-26T11:27:45;6.25;;;5.65;;
20056;SDS011;10189;49.546;7.906;2023-06-26T11:30:21;9.90;;;6.22;;
20056;SDS011;10189;49.546;7.906;2023-06-26T11:32:49;7.15;;;6.13;;
20056;SDS011;10189;49.546;7.906;2023-06-26T11:35:27;8.90;;;6.72;;
20056;SDS011;10189;49.546;7.906;2023-06-26T11:37:57;8.98;;;7.82;;
20056;SDS011;10189;49.546;7.906;2023-06-26T11:40:29;8.85;;;7.93;;
20056;SDS011;10189;49.546;7.906;2023-06-26T11:43:00;9.32;;;7.95;;
20056;SDS011;10189;49.546;7.906;2023-06-26T11:45:30;8.60;;;7.70;;
20056;SDS011;10189;49.546;7.906;2023-06-26T11:47:57;9.05;;;8.13;;
20056;SDS011;10189;49.546;7.906;2023-06-26T11:50:25;11.05;;;7.88;;
20056;SDS011;10189;49.546;7.906;2023-06-26T11:52:55;10.45;;;8.77;;
20056;SDS011;10189;49.546;7.906;2023-06-26T11:55:24;11.90;;;8.77;;
20056;SDS011;10189;49.546;7.906;2023-06-26T11:57:54;9.40;;;8.40;;
20056;SDS011;10189;49.546;7.906;2023-06-26T12:00:22;8.98;;;8.07;;
20056;SDS011;10189;49.546;7.906;2023-06-26T12:02:48;8.38;;;7.55;;
20056;SDS011;10189;49.546;7.906;2023-06-26T12:05:16;8.70;;;7.00;;
20056;SDS011;10189;49.546;7.906;2023-06-26T12:07:43;7.85;;;6.65;;
20056;SDS011;10189;49.546;7.906;2023-06-26T12:10:13;8.07;;;6.18;;
20056;SDS011;10189;49.546;7.906;2023-06-26T12:12:41;7.70;;;5.50;;
20056;SDS011;10189;49.546;7.906;2023-06-26T12:15:07;7.95;;;5.72;;
20056;SDS011;10189;49.546;7.906;2023-06-26T12:17:38;5.50;;;4.47;;
20056;SDS011;10189;49.546;7.906;2023-06-26T12:20:05;5.55;;;4.32;;
20056;SDS011;10189;49.546;7.906;2023-06-26T12:22:43;5.75;;;4.22;;
20056;SDS011;10189;49.546;7.906;2023-06-26T12:25:12;7.72;;;4.40;;
20056;SDS011;10189;49.546;7.906;2023-06-26T12:27:38;8.48;;;3.92;;
20056;SDS011;10189;49.546;7.906;2023-06-26T12:30:04;5.32;;;3.20;;
20056;SDS011;10189;49.546;7.906;2023-06-26T12:32:32;6.03;;;3.67;;
20056;SDS011;10189;49.546;7.906;2023-06-26T12:35:00;6.15;;;3.90;;
20056;SDS011;10189;49.546;7.906;2023-06-26T12:37:26;5.93;;;3.30;;
20056;SDS011;10189;49.546;7.906;2023-06-26T12:39:56;5.03;;;3.15;;
20056;SDS011;10189;49.546;7.906;2023-06-26T12:44:51;3.65;;;2.70;;
20056;SDS011;10189;49.546;7.906;2023-06-26T12:47:18;7.20;;;3.22;;
20056;SDS011;10189;49.546;7.906;2023-06-26T12:49:52;5.63;;;2.90;;
20056;SDS011;10189;49.546;7.906;2023-06-26T12:52:19;5.70;;;2.97;;
20056;SDS011;10189;49.546;7.906;2023-06-26T12:54:46;3.60;;;2.60;;
20056;SDS011;10189;49.546;7.906;2023-06-26T12:57:17;4.15;;;2.22;;
20056;SDS011;10189;49.546;7.906;2023-06-26T12:59:43;4.18;;;2.47;;
20056;SDS011;10189;49.546;7.906;2023-06-26T13:02:09;4.53;;;2.78;;
20056;SDS011;10189;49.546;7.906;2023-06-26T13:04:38;3.42;;;2.72;;
20056;SDS011;10189;49.546;7.906;2023-06-26T13:07:09;5.72;;;2.80;;
20056;SDS011;10189;49.546;7.906;2023-06-26T13:09:36;5.97;;;2.65;;
20056;SDS011;10189;49.546;7.906;2023-06-26T13:12:06;4.43;;;2.58;;
20056;SDS011;10189;49.546;7.906;2023-06-26T13:14:32;6.60;;;2.33;;
20056;SDS011;10189;49.546;7.906;2023-06-26T13:17:00;5.38;;;2.90;;
20056;SDS011;10189;49.546;7.906;2023-06-26T13:19:26;5.85;;;2.47;;
20056;SDS011;10189;49.546;7.906;2023-06-26T13:21:52;3.83;;;2.40;;
20056;SDS011;10189;49.546;7.906;2023-06-26T13:24:19;3.70;;;2.47;;
20056;SDS011;10189;49.546;7.906;2023-06-26T13:26:45;5.13;;;2.67;;
20056;SDS011;10189;49.546;7.906;2023-06-26T13:29:11;4.10;;;2.42;;
20056;SDS011;10189;49.546;7.906;2023-06-26T13:31:36;4.53;;;2.45;;
20056;SDS011;10189;49.546;7.906;2023-06-26T13:34:03;3.45;;;2.22;;
20056;SDS011;10189;49.546;7.906;2023-06-26T13:36:30;4.63;;;2.60;;
20056;SDS011;10189;49.546;7.906;2023-06-26T13:38:58;3.55;;;2.38;;
20056;SDS011;10189;49.546;7.906;2023-06-26T13:41:25;8.30;;;2.83;;
20056;SDS011;10189;49.546;7.906;2023-06-26T13:43:51;3.65;;;2.50;;
20056;SDS011;10189;49.546;7.906;2023-06-26T13:46:17;4.60;;;2.63;;
20056;SDS011;10189;49.546;7.906;2023-06-26T13:48:44;5.10;;;2.35;;
20056;SDS011;10189;49.546;7.906;2023-06-26T13:51:10;6.00;;;2.70;;
20056;SDS011;10189;49.546;7.906;2023-06-26T13:53:36;4.38;;;2.65;;
20056;SDS011;10189;49.546;7.906;2023-06-26T13:56:02;6.70;;;2.50;;
20056;SDS011;10189;49.546;7.906;2023-06-26T13:58:28;4.18;;;2.33;;
20056;SDS011;10189;49.546;7.906;2023-06-26T14:00:55;4.00;;;2.47;;
20056;SDS011;10189;49.546;7.906;2023-06-26T14:03:20;4.22;;;2.42;;
20056;SDS011;10189;49.546;7.906;2023-06-26T14:05:46;4.43;;;2.70;;
20056;SDS011;10189;49.546;7.906;2023-06-26T14:08:13;5.88;;;2.60;;
20056;SDS011;10189;49.546;7.906;2023-06-26T14:10:39;4.95;;;2.72;;
20056;SDS011;10189;49.546;7.906;2023-06-26T14:13:05;6.68;;;2.60;;
20056;SDS011;10189;49.546;7.906;2023-06-26T14:15:32;6.78;;;2.67;;
20056;SDS011;10189;49.546;7.906;2023-06-26T14:17:59;5.63;;;2.95;;
20056;SDS011;10189;49.546;7.906;2023-06-26T14:20:24;7.13;;;2.42;;
20056;SDS011;10189;49.546;7.906;2023-06-26T14:22:50;6.55;;;2.65;;
20056;SDS011;10189;49.546;7.906;2023-06-26T14:25:16;8.32;;;2.75;;
20056;SDS011;10189;49.546;7.906;2023-06-26T14:27:42;7.32;;;2.58;;
20056;SDS011;10189;49.546;7.906;2023-06-26T14:30:08;7.30;;;2.65;;
20056;SDS011;10189;49.546;7.906;2023-06-26T14:32:35;4.43;;;2.42;;
20056;SDS011;10189;49.546;7.906;2023-06-26T14:35:01;5.88;;;2.65;;
20056;SDS011;10189;49.546;7.906;2023-06-26T14:37:28;6.82;;;2.53;;
20056;SDS011;10189;49.546;7.906;2023-06-26T14:39:55;6.13;;;2.45;;
20056;SDS011;10189;49.546;7.906;2023-06-26T14:42:22;6.22;;;2.63;;
20056;SDS011;10189;49.546;7.906;2023-06-26T14:44:48;5.25;;;2.45;;
20056;SDS011;10189;49.546;7.906;2023-06-26T14:47:18;5.10;;;2.22;;
20056;SDS011;10189;49.546;7.906;2023-06-26T14:49:44;5.65;;;2.50;;
20056;SDS011;10189;49.546;7.906;2023-06-26T14:52:10;4.28;;;2.38;;
20056;SDS011;10189;49.546;7.906;2023-06-26T14:54:36;3.20;;;2.10;;
20056;SDS011;10189;49.546;7.906;2023-06-26T14:57:06;4.93;;;2.53;;
20056;SDS011;10189;49.546;7.906;2023-06-26T14:59:32;4.88;;;2.30;;
20056;SDS011;10189;49.546;7.906;2023-06-26T15:01:59;4.78;;;2.10;;
20056;SDS011;10189;49.546;7.906;2023-06-26T15:04:25;4.90;;;2.35;;
20056;SDS011;10189;49.546;7.906;2023-06-26T15:06:51;3.28;;;1.98;;
20056;SDS011;10189;49.546;7.906;2023-06-26T15:09:18;10.13;;;2.70;;